sensor_id;sensor_type;location;lat;lon;timestamp;P1;durP1;ratioP1;P2;durP2;ratioP2
11847;SDS011;5983;49.966;8.052;2023-03-01T00:01:39;9.20;;;5.40;;
11847;SDS011;5983;49.966;8.052;2023-03-01T00:04:07;9.90;;;5.30;;
11847;SDS011;5983;49.966;8.052;2023-03-01T00:06:35;7.13;;;4.80;;
11847;SDS011;5983;49.966;8.052;2023-03-01T00:09:03;6.97;;;4.90;;
11847;SDS011;5983;49.966;8.052;2023-03-01T00:11:30;7.03;;;5.33;;
11847;SDS011;5983;49.966;8.052;2023-03-01T00:14:00;7.80;;;5.40;;
11847;SDS011;5983;49.966;8.052;2023-03-01T00:16:30;8.10;;;5.33;;
11847;SDS011;5983;49.966;8.052;2023-03-01T00:18:59;6.90;;;4.87;;
11847;SDS011;5983;49.966;8.052;2023-03-01T00:21:27;7.87;;;5.40;;
11847;SDS011;5983;49.966;8.052;2023-03-01T00:23:56;7.97;;;5.20;;
11847;SDS011;5983;49.966;8.052;2023-03-01T00:26:24;7.23;;;5.47;;
11847;SDS011;5983;49.966;8.052;2023-03-01T00:28:52;8.23;;;5.50;;
11847;SDS011;5983;49.966;8.052;2023-03-01T00:31:22;7.77;;;5.03;;
11847;SDS011;5983;49.966;8.052;2023-03-01T00:33:52;8.57;;;5.03;;
11847;SDS011;5983;49.966;8.052;2023-03-01T00:36:22;7.93;;;5.20;;
11847;SDS011;5983;49.966;8.052;2023-03-01T00:38:51;9.17;;;5.70;;
11847;SDS011;5983;49.966;8.052;2023-03-01T00:41:20;8.33;;;5.93;;
11847;SDS011;5983;49.966;8.052;2023-03-01T00:43:49;9.07;;;5.33;;
11847;SDS011;5983;49.966;8.052;2023-03-01T00:46:17;8.83;;;5.37;;
11847;SDS011;5983;49.966;8.052;2023-03-01T00:48:46;9.00;;;6.80;;
11847;SDS011;5983;49.966;8.052;2023-03-01T00:51:18;7.80;;;5.27;;
11847;SDS011;5983;49.966;8.052;2023-03-01T00:53:49;9.43;;;5.37;;
11847;SDS011;5983;49.966;8.052;2023-03-01T00:56:17;6.97;;;5.33;;
11847;SDS011;5983;49.966;8.052;2023-03-01T00:58:46;7.57;;;5.27;;
11847;SDS011;5983;49.966;8.052;2023-03-01T01:01:14;8.77;;;5.53;;
11847;SDS011;5983;49.966;8.052;2023-03-01T01:03:44;9.87;;;4.80;;
11847;SDS011;5983;49.966;8.052;2023-03-01T01:06:13;8.03;;;5.40;;
11847;SDS011;5983;49.966;8.052;2023-03-01T01:08:42;7.00;;;5.03;;
11847;SDS011;5983;49.966;8.052;2023-03-01T01:11:10;9.43;;;5.07;;
11847;SDS011;5983;49.966;8.052;2023-03-01T01:13:39;8.53;;;5.20;;
11847;SDS011;5983;49.966;8.052;2023-03-01T01:16:07;7.93;;;5.67;;
11847;SDS011;5983;49.966;8.052;2023-03-01T01:18:35;8.07;;;5.70;;
11847;SDS011;5983;49.966;8.052;2023-03-01T01:21:03;8.20;;;5.20;;
11847;SDS011;5983;49.966;8.052;2023-03-01T01:23:32;9.20;;;5.33;;
11847;SDS011;5983;49.966;8.052;2023-03-01T01:26:03;8.43;;;5.43;;
11847;SDS011;5983;49.966;8.052;2023-03-01T01:28:32;7.57;;;5.87;;
11847;SDS011;5983;49.966;8.052;2023-03-01T01:31:01;7.20;;;5.33;;
11847;SDS011;5983;49.966;8.052;2023-03-01T01:33:28;7.57;;;5.87;;
11847;SDS011;5983;49.966;8.052;2023-03-01T01:35:55;9.40;;;5.87;;
11847;SDS011;5983;49.966;8.052;2023-03-01T01:38:23;9.23;;;5.80;;
11847;SDS011;5983;49.966;8.052;2023-03-01T01:40:50;8.07;;;5.47;;
11847;SDS011;5983;49.966;8.052;2023-03-01T01:43:19;10.70;;;6.43;;
11847;SDS011;5983;49.966;8.052;2023-03-01T01:45:50;10.77;;;5.97;;
11847;SDS011;5983;49.966;8.052;2023-03-01T01:48:23;9.97;;;5.97;;
11847;SDS011;5983;49.966;8.052;2023-03-01T01:51:05;8.93;;;6.00;;
11847;SDS011;5983;49.966;8.052;2023-03-01T01:53:36;15.63;;;6.10;;
11847;SDS011;5983;49.966;8.052;2023-03-01T01:56:06;11.30;;;6.93;;
11847;SDS011;5983;49.966;8.052;2023-03-01T01:58:38;10.43;;;6.73;;
11847;SDS011;5983;49.966;8.052;2023-03-01T02:01:06;11.03;;;6.73;;
11847;SDS011;5983;49.966;8.052;2023-03-01T02:03:36;12.47;;;6.47;;
11847;SDS011;5983;49.966;8.052;2023-03-01T02:06:12;9.47;;;6.03;;
11847;SDS011;5983;49.966;8.052;2023-03-01T02:08:48;9.20;;;5.73;;
11847;SDS011;5983;49.966;8.052;2023-03-01T02:11:18;9.70;;;5.80;;
11847;SDS011;5983;49.966;8.052;2023-03-01T02:13:47;6.73;;;5.13;;
11847;SDS011;5983;49.966;8.052;2023-03-01T02:16:15;7.47;;;5.60;;
11847;SDS011;5983;49.966;8.052;2023-03-01T02:18:45;9.60;;;5.53;;
11847;SDS011;5983;49.966;8.052;2023-03-01T02:21:17;8.97;;;5.30;;
11847;SDS011;5983;49.966;8.052;2023-03-01T02:24:10;8.17;;;5.37;;
11847;SDS011;5983;49.966;8.052;2023-03-01T02:26:54;8.50;;;5.27;;
11847;SDS011;5983;49.966;8.052;2023-03-01T02:29:24;8.00;;;5.60;;
11847;SDS011;5983;49.966;8.052;2023-03-01T02:31:52;8.20;;;5.73;;
11847;SDS011;5983;49.966;8.052;2023-03-01T02:34:24;9.87;;;6.87;;
11847;SDS011;5983;49.966;8.052;2023-03-01T02:36:53;12.93;;;6.67;;
11847;SDS011;5983;49.966;8.052;2023-03-01T02:39:26;9.97;;;6.07;;
11847;SDS011;5983;49.966;8.052;2023-03-01T02:41:59;9.03;;;5.50;;
11847;SDS011;5983;49.966;8.052;2023-03-01T02:44:31;8.70;;;5.80;;
11847;SDS011;5983;49.966;8.052;2023-03-01T02:46:58;7.13;;;5.20;;
11847;SDS011;5983;49.966;8.052;2023-03-01T02:49:30;11.63;;;6.37;;
11847;SDS011;5983;49.966;8.052;2023-03-01T02:54:58;8.10;;;5.30;;
11847;SDS011;5983;49.966;8.052;2023-03-01T02:57:29;8.53;;;5.70;;
11847;SDS011;5983;49.966;8.052;2023-03-01T03:00:01;9.60;;;5.70;;
11847;SDS011;5983;49.966;8.052;2023-03-01T03:02:33;10.00;;;6.50;;
11847;SDS011;5983;49.966;8.052;2023-03-01T03:05:05;9.13;;;6.17;;
11847;SDS011;5983;49.966;8.052;2023-03-01T03:07:37;10.00;;;6.60;;
11847;SDS011;5983;49.966;8.052;2023-03-01T03:10:08;9.17;;;6.23;;
11847;SDS011;5983;49.966;8.052;2023-03-01T03:12:38;10.63;;;6.23;;
11847;SDS011;5983;49.966;8.052;2023-03-01T03:15:08;8.23;;;5.93;;
11847;SDS011;5983;49.966;8.052;2023-03-01T03:17:37;8.07;;;6.17;;
11847;SDS011;5983;49.966;8.052;2023-03-01T03:20:08;12.13;;;6.60;;
11847;SDS011;5983;49.966;8.052;2023-03-01T03:22:38;7.13;;;5.47;;
11847;SDS011;5983;49.966;8.052;2023-03-01T03:25:05;8.63;;;5.80;;
11847;SDS011;5983;49.966;8.052;2023-03-01T03:27:35;8.27;;;5.77;;
11847;SDS011;5983;49.966;8.052;2023-03-01T03:30:03;9.17;;;6.23;;
11847;SDS011;5983;49.966;8.052;2023-03-01T03:32:34;9.73;;;6.50;;
11847;SDS011;5983;49.966;8.052;2023-03-01T03:35:01;8.87;;;5.87;;
11847;SDS011;5983;49.966;8.052;2023-03-01T03:37:33;9.73;;;6.50;;
11847;SDS011;5983;49.966;8.052;2023-03-01T03:40:19;9.23;;;6.13;;
11847;SDS011;5983;49.966;8.052;2023-03-01T03:42:46;9.93;;;6.33;;
11847;SDS011;5983;49.966;8.052;2023-03-01T03:45:14;11.27;;;6.97;;
11847;SDS011;5983;49.966;8.052;2023-03-01T03:47:41;11.03;;;6.17;;
11847;SDS011;5983;49.966;8.052;2023-03-01T03:50:10;10.80;;;6.70;;
11847;SDS011;5983;49.966;8.052;2023-03-01T03:52:39;9.67;;;6.27;;
11847;SDS011;5983;49.966;8.052;2023-03-01T03:55:07;8.83;;;6.00;;
11847;SDS011;5983;49.966;8.052;2023-03-01T03:57:37;9.50;;;6.33;;
11847;SDS011;5983;49.966;8.052;2023-03-01T04:00:06;9.00;;;5.93;;
11847;SDS011;5983;49.966;8.052;2023-03-01T04:02:39;10.40;;;6.23;;
11847;SDS011;5983;49.966;8.052;2023-03-01T04:05:07;10.00;;;6.53;;
11847;SDS011;5983;49.966;8.052;2023-03-01T04:07:36;8.67;;;6.13;;
11847;SDS011;5983;49.966;8.052;2023-03-01T04:10:05;8.97;;;5.77;;
11847;SDS011;5983;49.966;8.052;2023-03-01T04:12:36;9.70;;;6.30;;
11847;SDS011;5983;49.966;8.052;2023-03-01T04:15:04;10.43;;;6.30;;
11847;SDS011;5983;49.966;8.052;2023-03-01T04:17:40;8.70;;;5.90;;
11847;SDS011;5983;49.966;8.052;2023-03-01T04:20:08;10.90;;;6.63;;
11847;SDS011;5983;49.966;8.052;2023-03-01T04:22:37;10.63;;;6.60;;
11847;SDS011;5983;49.966;8.052;2023-03-01T04:25:06;10.90;;;6.37;;
11847;SDS011;5983;49.966;8.052;2023-03-01T04:27:39;9.90;;;6.50;;
11847;SDS011;5983;49.966;8.052;2023-03-01T04:30:07;11.83;;;7.20;;
11847;SDS011;5983;49.966;8.052;2023-03-01T04:32:35;11.97;;;7.23;;
11847;SDS011;5983;49.966;8.052;2023-03-01T04:35:04;9.87;;;6.87;;
11847;SDS011;5983;49.966;8.052;2023-03-01T04:37:31;8.90;;;6.67;;
11847;SDS011;5983;49.966;8.052;2023-03-01T04:39:59;10.67;;;7.03;;
11847;SDS011;5983;49.966;8.052;2023-03-01T04:42:31;11.10;;;7.53;;
11847;SDS011;5983;49.966;8.052;2023-03-01T04:44:58;11.20;;;7.00;;
11847;SDS011;5983;49.966;8.052;2023-03-01T04:47:25;11.43;;;6.80;;
11847;SDS011;5983;49.966;8.052;2023-03-01T04:49:52;14.57;;;6.90;;
11847;SDS011;5983;49.966;8.052;2023-03-01T04:52:20;15.37;;;7.27;;
11847;SDS011;5983;49.966;8.052;2023-03-01T04:54:47;10.97;;;6.17;;
11847;SDS011;5983;49.966;8.052;2023-03-01T04:57:14;11.70;;;6.83;;
11847;SDS011;5983;49.966;8.052;2023-03-01T04:59:41;10.53;;;7.10;;
11847;SDS011;5983;49.966;8.052;2023-03-01T05:02:09;11.47;;;7.53;;
11847;SDS011;5983;49.966;8.052;2023-03-01T05:04:35;12.63;;;7.40;;
11847;SDS011;5983;49.966;8.052;2023-03-01T05:07:02;12.67;;;7.67;;
11847;SDS011;5983;49.966;8.052;2023-03-01T05:09:31;12.40;;;8.33;;
11847;SDS011;5983;49.966;8.052;2023-03-01T05:11:58;10.60;;;6.23;;
11847;SDS011;5983;49.966;8.052;2023-03-01T05:14:25;15.70;;;6.73;;
11847;SDS011;5983;49.966;8.052;2023-03-01T05:16:51;10.73;;;7.30;;
11847;SDS011;5983;49.966;8.052;2023-03-01T05:19:18;9.70;;;6.83;;
11847;SDS011;5983;49.966;8.052;2023-03-01T05:21:47;9.37;;;7.03;;
11847;SDS011;5983;49.966;8.052;2023-03-01T05:24:31;11.67;;;7.60;;
11847;SDS011;5983;49.966;8.052;2023-03-01T05:27:00;10.60;;;6.40;;
11847;SDS011;5983;49.966;8.052;2023-03-01T05:29:29;13.93;;;7.37;;
11847;SDS011;5983;49.966;8.052;2023-03-01T05:32:00;12.30;;;7.10;;
11847;SDS011;5983;49.966;8.052;2023-03-01T05:34:29;11.73;;;7.70;;
11847;SDS011;5983;49.966;8.052;2023-03-01T05:37:00;10.30;;;7.07;;
11847;SDS011;5983;49.966;8.052;2023-03-01T05:39:28;11.50;;;7.43;;
11847;SDS011;5983;49.966;8.052;2023-03-01T05:41:58;11.23;;;7.30;;
11847;SDS011;5983;49.966;8.052;2023-03-01T05:44:27;11.10;;;7.07;;
11847;SDS011;5983;49.966;8.052;2023-03-01T05:46:55;12.17;;;7.77;;
11847;SDS011;5983;49.966;8.052;2023-03-01T05:49:22;15.30;;;7.87;;
11847;SDS011;5983;49.966;8.052;2023-03-01T05:51:50;11.63;;;7.73;;
11847;SDS011;5983;49.966;8.052;2023-03-01T05:54:19;11.07;;;7.70;;
11847;SDS011;5983;49.966;8.052;2023-03-01T05:56:49;13.83;;;7.70;;
11847;SDS011;5983;49.966;8.052;2023-03-01T05:59:16;11.53;;;7.67;;
11847;SDS011;5983;49.966;8.052;2023-03-01T06:01:42;11.07;;;7.90;;
11847;SDS011;5983;49.966;8.052;2023-03-01T06:04:09;11.83;;;7.37;;
11847;SDS011;5983;49.966;8.052;2023-03-01T06:06:36;11.53;;;7.60;;
11847;SDS011;5983;49.966;8.052;2023-03-01T06:09:04;10.47;;;7.23;;
11847;SDS011;5983;49.966;8.052;2023-03-01T06:11:34;12.03;;;7.47;;
11847;SDS011;5983;49.966;8.052;2023-03-01T06:14:03;11.57;;;7.20;;
11847;SDS011;5983;49.966;8.052;2023-03-01T06:16:32;13.47;;;8.00;;
11847;SDS011;5983;49.966;8.052;2023-03-01T06:19:00;11.60;;;7.43;;
11847;SDS011;5983;49.966;8.052;2023-03-01T06:21:26;14.93;;;7.43;;
11847;SDS011;5983;49.966;8.052;2023-03-01T06:23:53;10.03;;;6.70;;
11847;SDS011;5983;49.966;8.052;2023-03-01T06:26:20;14.90;;;7.50;;
11847;SDS011;5983;49.966;8.052;2023-03-01T06:28:47;11.53;;;8.23;;
11847;SDS011;5983;49.966;8.052;2023-03-01T06:31:15;13.70;;;8.67;;
11847;SDS011;5983;49.966;8.052;2023-03-01T06:33:42;12.00;;;8.00;;
11847;SDS011;5983;49.966;8.052;2023-03-01T06:36:10;14.20;;;8.23;;
11847;SDS011;5983;49.966;8.052;2023-03-01T06:38:40;14.90;;;8.90;;
11847;SDS011;5983;49.966;8.052;2023-03-01T06:41:08;11.03;;;7.50;;
11847;SDS011;5983;49.966;8.052;2023-03-01T06:43:36;13.83;;;8.80;;
11847;SDS011;5983;49.966;8.052;2023-03-01T06:46:03;13.73;;;7.43;;
11847;SDS011;5983;49.966;8.052;2023-03-01T06:48:33;13.47;;;7.83;;
11847;SDS011;5983;49.966;8.052;2023-03-01T06:51:01;14.60;;;8.43;;
11847;SDS011;5983;49.966;8.052;2023-03-01T06:53:28;13.60;;;8.03;;
11847;SDS011;5983;49.966;8.052;2023-03-01T06:55:55;10.40;;;7.33;;
11847;SDS011;5983;49.966;8.052;2023-03-01T06:58:29;11.77;;;7.33;;
11847;SDS011;5983;49.966;8.052;2023-03-01T07:00:59;17.67;;;7.90;;
11847;SDS011;5983;49.966;8.052;2023-03-01T07:03:26;13.50;;;8.00;;
11847;SDS011;5983;49.966;8.052;2023-03-01T07:05:54;12.93;;;8.20;;
11847;SDS011;5983;49.966;8.052;2023-03-01T07:08:24;11.70;;;7.43;;
11847;SDS011;5983;49.966;8.052;2023-03-01T07:10:54;12.57;;;8.63;;
11847;SDS011;5983;49.966;8.052;2023-03-01T07:13:21;12.57;;;7.33;;
11847;SDS011;5983;49.966;8.052;2023-03-01T07:15:51;14.33;;;8.40;;
11847;SDS011;5983;49.966;8.052;2023-03-01T07:18:18;10.40;;;7.27;;
11847;SDS011;5983;49.966;8.052;2023-03-01T07:20:45;10.67;;;8.03;;
11847;SDS011;5983;49.966;8.052;2023-03-01T07:23:14;11.60;;;7.67;;
11847;SDS011;5983;49.966;8.052;2023-03-01T07:25:41;11.07;;;7.07;;
11847;SDS011;5983;49.966;8.052;2023-03-01T07:28:08;12.17;;;6.97;;
11847;SDS011;5983;49.966;8.052;2023-03-01T07:30:35;10.80;;;7.57;;
11847;SDS011;5983;49.966;8.052;2023-03-01T07:33:02;9.60;;;6.87;;
11847;SDS011;5983;49.966;8.052;2023-03-01T07:35:29;11.20;;;7.73;;
11847;SDS011;5983;49.966;8.052;2023-03-01T07:37:58;13.20;;;8.00;;
11847;SDS011;5983;49.966;8.052;2023-03-01T07:40:26;11.30;;;7.40;;
11847;SDS011;5983;49.966;8.052;2023-03-01T07:42:55;10.70;;;7.47;;
11847;SDS011;5983;49.966;8.052;2023-03-01T07:45:22;14.60;;;7.63;;
11847;SDS011;5983;49.966;8.052;2023-03-01T07:47:50;12.83;;;7.00;;
11847;SDS011;5983;49.966;8.052;2023-03-01T07:50:17;8.23;;;6.60;;
11847;SDS011;5983;49.966;8.052;2023-03-01T07:52:44;16.47;;;6.93;;
11847;SDS011;5983;49.966;8.052;2023-03-01T07:55:12;9.30;;;7.37;;
11847;SDS011;5983;49.966;8.052;2023-03-01T07:57:40;17.00;;;7.10;;
11847;SDS011;5983;49.966;8.052;2023-03-01T08:00:09;8.03;;;6.70;;
11847;SDS011;5983;49.966;8.052;2023-03-01T08:02:38;9.63;;;6.13;;
11847;SDS011;5983;49.966;8.052;2023-03-01T08:05:07;8.53;;;6.30;;
11847;SDS011;5983;49.966;8.052;2023-03-01T08:07:35;7.07;;;5.87;;
11847;SDS011;5983;49.966;8.052;2023-03-01T08:10:02;8.83;;;6.67;;
11847;SDS011;5983;49.966;8.052;2023-03-01T08:12:29;7.70;;;6.17;;
11847;SDS011;5983;49.966;8.052;2023-03-01T08:14:57;8.13;;;6.30;;
11847;SDS011;5983;49.966;8.052;2023-03-01T08:17:24;9.17;;;6.37;;
11847;SDS011;5983;49.966;8.052;2023-03-01T08:19:51;6.93;;;5.50;;
11847;SDS011;5983;49.966;8.052;2023-03-01T08:22:18;7.97;;;6.00;;
11847;SDS011;5983;49.966;8.052;2023-03-01T08:24:46;8.80;;;6.53;;
11847;SDS011;5983;49.966;8.052;2023-03-01T08:27:14;6.33;;;5.67;;
11847;SDS011;5983;49.966;8.052;2023-03-01T08:29:41;8.83;;;6.60;;
11847;SDS011;5983;49.966;8.052;2023-03-01T08:32:10;9.70;;;6.07;;
11847;SDS011;5983;49.966;8.052;2023-03-01T08:34:37;7.43;;;6.10;;
11847;SDS011;5983;49.966;8.052;2023-03-01T08:37:04;9.07;;;6.07;;
11847;SDS011;5983;49.966;8.052;2023-03-01T08:39:31;7.50;;;6.30;;
11847;SDS011;5983;49.966;8.052;2023-03-01T08:41:58;8.67;;;6.20;;
11847;SDS011;5983;49.966;8.052;2023-03-01T08:44:25;9.20;;;6.27;;
11847;SDS011;5983;49.966;8.052;2023-03-01T08:46:52;9.17;;;7.07;;
11847;SDS011;5983;49.966;8.052;2023-03-01T08:49:21;10.23;;;6.40;;
11847;SDS011;5983;49.966;8.052;2023-03-01T08:51:49;7.80;;;6.63;;
11847;SDS011;5983;49.966;8.052;2023-03-01T08:54:17;8.83;;;6.07;;
11847;SDS011;5983;49.966;8.052;2023-03-01T08:56:46;9.40;;;6.07;;
11847;SDS011;5983;49.966;8.052;2023-03-01T08:59:15;9.37;;;7.03;;
11847;SDS011;5983;49.966;8.052;2023-03-01T09:01:43;7.50;;;6.17;;
11847;SDS011;5983;49.966;8.052;2023-03-01T09:04:10;7.73;;;5.83;;
11847;SDS011;5983;49.966;8.052;2023-03-01T09:06:39;7.63;;;6.33;;
11847;SDS011;5983;49.966;8.052;2023-03-01T09:09:10;7.67;;;6.27;;
11847;SDS011;5983;49.966;8.052;2023-03-01T09:11:41;8.47;;;6.50;;
11847;SDS011;5983;49.966;8.052;2023-03-01T09:14:08;7.77;;;6.37;;
11847;SDS011;5983;49.966;8.052;2023-03-01T09:16:35;8.07;;;6.10;;
11847;SDS011;5983;49.966;8.052;2023-03-01T09:19:02;6.77;;;5.63;;
11847;SDS011;5983;49.966;8.052;2023-03-01T09:21:30;9.73;;;5.97;;
11847;SDS011;5983;49.966;8.052;2023-03-01T09:23:58;8.40;;;5.97;;
11847;SDS011;5983;49.966;8.052;2023-03-01T09:26:25;8.67;;;6.20;;
11847;SDS011;5983;49.966;8.052;2023-03-01T09:28:53;8.73;;;6.07;;
11847;SDS011;5983;49.966;8.052;2023-03-01T09:31:23;7.13;;;5.67;;
11847;SDS011;5983;49.966;8.052;2023-03-01T09:33:51;8.83;;;6.33;;
11847;SDS011;5983;49.966;8.052;2023-03-01T09:36:20;8.50;;;6.10;;
11847;SDS011;5983;49.966;8.052;2023-03-01T09:38:50;7.20;;;5.77;;
11847;SDS011;5983;49.966;8.052;2023-03-01T09:41:24;8.87;;;7.37;;
11847;SDS011;5983;49.966;8.052;2023-03-01T09:44:20;7.57;;;6.07;;
11847;SDS011;5983;49.966;8.052;2023-03-01T09:46:56;9.30;;;6.20;;
11847;SDS011;5983;49.966;8.052;2023-03-01T09:49:24;8.07;;;6.43;;
11847;SDS011;5983;49.966;8.052;2023-03-01T09:51:56;7.03;;;5.80;;
11847;SDS011;5983;49.966;8.052;2023-03-01T09:54:29;8.57;;;6.60;;
11847;SDS011;5983;49.966;8.052;2023-03-01T09:57:01;8.70;;;6.17;;
11847;SDS011;5983;49.966;8.052;2023-03-01T09:59:45;6.90;;;5.90;;
11847;SDS011;5983;49.966;8.052;2023-03-01T10:02:38;6.83;;;5.87;;
11847;SDS011;5983;49.966;8.052;2023-03-01T10:05:15;8.33;;;7.03;;
11847;SDS011;5983;49.966;8.052;2023-03-01T10:08:02;7.00;;;5.93;;
11847;SDS011;5983;49.966;8.052;2023-03-01T10:10:54;7.60;;;6.73;;
11847;SDS011;5983;49.966;8.052;2023-03-01T10:13:23;8.97;;;6.67;;
11847;SDS011;5983;49.966;8.052;2023-03-01T10:16:00;6.73;;;6.03;;
11847;SDS011;5983;49.966;8.052;2023-03-01T10:18:35;6.45;;;5.85;;
11847;SDS011;5983;49.966;8.052;2023-03-01T10:21:09;7.05;;;6.32;;
11847;SDS011;5983;49.966;8.052;2023-03-01T10:23:42;9.68;;;6.15;;
11847;SDS011;5983;49.966;8.052;2023-03-01T10:26:13;8.25;;;6.53;;
11847;SDS011;5983;49.966;8.052;2023-03-01T10:29:05;9.88;;;6.05;;
11847;SDS011;5983;49.966;8.052;2023-03-01T10:31:37;7.43;;;6.32;;
11847;SDS011;5983;49.966;8.052;2023-03-01T10:34:09;8.30;;;7.13;;
11847;SDS011;5983;49.966;8.052;2023-03-01T10:36:40;7.72;;;6.95;;
11847;SDS011;5983;49.966;8.052;2023-03-01T10:39:13;7.45;;;6.60;;
11847;SDS011;5983;49.966;8.052;2023-03-01T10:41:54;8.15;;;6.78;;
11847;SDS011;5983;49.966;8.052;2023-03-01T10:44:39;10.73;;;7.57;;
11847;SDS011;5983;49.966;8.052;2023-03-01T10:47:14;8.00;;;6.70;;
11847;SDS011;5983;49.966;8.052;2023-03-01T10:49:52;8.85;;;6.88;;
11847;SDS011;5983;49.966;8.052;2023-03-01T10:52:32;11.02;;;7.25;;
11847;SDS011;5983;49.966;8.052;2023-03-01T10:55:03;10.82;;;7.18;;
11847;SDS011;5983;49.966;8.052;2023-03-01T10:58:05;8.75;;;7.07;;
11847;SDS011;5983;49.966;8.052;2023-03-01T11:00:45;7.43;;;5.93;;
11847;SDS011;5983;49.966;8.052;2023-03-01T11:03:16;7.68;;;6.55;;
11847;SDS011;5983;49.966;8.052;2023-03-01T11:05:52;6.57;;;5.90;;
11847;SDS011;5983;49.966;8.052;2023-03-01T11:08:30;7.50;;;6.50;;
11847;SDS011;5983;49.966;8.052;2023-03-01T11:11:18;8.50;;;6.72;;
11847;SDS011;5983;49.966;8.052;2023-03-01T11:13:51;9.05;;;6.18;;
11847;SDS011;5983;49.966;8.052;2023-03-01T11:16:35;7.93;;;6.82;;
11847;SDS011;5983;49.966;8.052;2023-03-01T11:19:18;7.85;;;6.85;;
11847;SDS011;5983;49.966;8.052;2023-03-01T11:21:50;10.15;;;6.93;;
11847;SDS011;5983;49.966;8.052;2023-03-01T11:24:30;8.15;;;6.70;;
11847;SDS011;5983;49.966;8.052;2023-03-01T11:27:06;7.03;;;5.82;;
11847;SDS011;5983;49.966;8.052;2023-03-01T11:29:44;7.43;;;6.43;;
11847;SDS011;5983;49.966;8.052;2023-03-01T11:32:18;7.82;;;6.53;;
11847;SDS011;5983;49.966;8.052;2023-03-01T11:34:50;9.70;;;6.10;;
11847;SDS011;5983;49.966;8.052;2023-03-01T11:37:35;10.63;;;7.05;;
11847;SDS011;5983;49.966;8.052;2023-03-01T11:40:11;7.45;;;6.35;;
11847;SDS011;5983;49.966;8.052;2023-03-01T11:42:49;6.82;;;5.93;;
11847;SDS011;5983;49.966;8.052;2023-03-01T11:45:29;7.78;;;6.05;;
11847;SDS011;5983;49.966;8.052;2023-03-01T11:48:26;6.93;;;6.25;;
11847;SDS011;5983;49.966;8.052;2023-03-01T11:51:13;6.63;;;5.97;;
11847;SDS011;5983;49.966;8.052;2023-03-01T11:53:54;6.80;;;6.10;;
11847;SDS011;5983;49.966;8.052;2023-03-01T11:56:43;6.20;;;5.53;;
11847;SDS011;5983;49.966;8.052;2023-03-01T11:59:24;8.18;;;6.70;;
11847;SDS011;5983;49.966;8.052;2023-03-01T12:08:39;7.63;;;5.90;;
11847;SDS011;5983;49.966;8.052;2023-03-01T12:11:17;6.47;;;5.85;;
11847;SDS011;5983;49.966;8.052;2023-03-01T12:14:09;7.13;;;5.32;;
11847;SDS011;5983;49.966;8.052;2023-03-01T12:17:07;10.23;;;6.50;;
11847;SDS011;5983;49.966;8.052;2023-03-01T12:20:00;7.38;;;5.22;;
11847;SDS011;5983;49.966;8.052;2023-03-01T12:22:51;6.10;;;5.50;;
11847;SDS011;5983;49.966;8.052;2023-03-01T12:25:48;6.53;;;5.78;;
11847;SDS011;5983;49.966;8.052;2023-03-01T12:28:31;8.95;;;5.95;;
11847;SDS011;5983;49.966;8.052;2023-03-01T12:34:37;8.13;;;5.13;;
11847;SDS011;5983;49.966;8.052;2023-03-01T12:37:36;6.50;;;5.90;;
11847;SDS011;5983;49.966;8.052;2023-03-01T12:43:22;8.02;;;5.05;;
11847;SDS011;5983;49.966;8.052;2023-03-01T12:46:06;5.70;;;5.10;;
11847;SDS011;5983;49.966;8.052;2023-03-01T12:48:56;7.53;;;5.30;;
11847;SDS011;5983;49.966;8.052;2023-03-01T12:51:34;6.03;;;4.80;;
11847;SDS011;5983;49.966;8.052;2023-03-01T12:54:05;5.75;;;4.80;;
11847;SDS011;5983;49.966;8.052;2023-03-01T12:56:43;6.13;;;5.50;;
11847;SDS011;5983;49.966;8.052;2023-03-01T12:59:18;7.63;;;5.27;;
11847;SDS011;5983;49.966;8.052;2023-03-01T13:01:53;6.30;;;4.60;;
11847;SDS011;5983;49.966;8.052;2023-03-01T13:04:35;5.07;;;4.27;;
11847;SDS011;5983;49.966;8.052;2023-03-01T13:07:23;4.70;;;4.27;;
11847;SDS011;5983;49.966;8.052;2023-03-01T13:10:00;5.40;;;4.90;;
11847;SDS011;5983;49.966;8.052;2023-03-01T13:12:50;5.87;;;4.80;;
11847;SDS011;5983;49.966;8.052;2023-03-01T13:15:32;7.77;;;5.67;;
11847;SDS011;5983;49.966;8.052;2023-03-01T13:18:02;5.40;;;4.60;;
11847;SDS011;5983;49.966;8.052;2023-03-01T13:20:51;8.10;;;4.80;;
11847;SDS011;5983;49.966;8.052;2023-03-01T13:23:25;5.00;;;4.33;;
11847;SDS011;5983;49.966;8.052;2023-03-01T13:26:06;21.00;;;10.35;;
11847;SDS011;5983;49.966;8.052;2023-03-01T13:28:50;7.47;;;5.53;;
11847;SDS011;5983;49.966;8.052;2023-03-01T13:34:39;5.07;;;4.57;;
11847;SDS011;5983;49.966;8.052;2023-03-01T13:37:25;4.73;;;4.03;;
11847;SDS011;5983;49.966;8.052;2023-03-01T13:40:00;18.13;;;11.57;;
11847;SDS011;5983;49.966;8.052;2023-03-01T13:42:52;13.67;;;9.57;;
11847;SDS011;5983;49.966;8.052;2023-03-01T13:45:23;14.15;;;7.70;;
11847;SDS011;5983;49.966;8.052;2023-03-01T13:48:02;4.50;;;4.07;;
11847;SDS011;5983;49.966;8.052;2023-03-01T13:50:37;4.87;;;3.87;;
11847;SDS011;5983;49.966;8.052;2023-03-01T13:53:14;9.00;;;5.50;;
11847;SDS011;5983;49.966;8.052;2023-03-01T13:55:45;6.23;;;4.50;;
11847;SDS011;5983;49.966;8.052;2023-03-01T13:58:21;4.73;;;4.33;;
11847;SDS011;5983;49.966;8.052;2023-03-01T14:00:59;5.10;;;4.60;;
11847;SDS011;5983;49.966;8.052;2023-03-01T14:03:29;6.70;;;4.73;;
11847;SDS011;5983;49.966;8.052;2023-03-01T14:05:59;5.17;;;4.37;;
11847;SDS011;5983;49.966;8.052;2023-03-01T14:08:32;4.87;;;4.33;;
11847;SDS011;5983;49.966;8.052;2023-03-01T14:14:48;6.90;;;4.50;;
11847;SDS011;5983;49.966;8.052;2023-03-01T14:17:36;6.07;;;4.57;;
11847;SDS011;5983;49.966;8.052;2023-03-01T14:20:17;6.07;;;4.07;;
11847;SDS011;5983;49.966;8.052;2023-03-01T14:22:47;4.93;;;4.33;;
11847;SDS011;5983;49.966;8.052;2023-03-01T14:25:23;7.63;;;4.73;;
11847;SDS011;5983;49.966;8.052;2023-03-01T14:27:57;5.37;;;4.13;;
11847;SDS011;5983;49.966;8.052;2023-03-01T14:30:30;5.70;;;3.93;;
11847;SDS011;5983;49.966;8.052;2023-03-01T14:33:03;7.17;;;4.60;;
11847;SDS011;5983;49.966;8.052;2023-03-01T14:35:51;6.10;;;4.17;;
11847;SDS011;5983;49.966;8.052;2023-03-01T14:38:21;5.17;;;4.17;;
11847;SDS011;5983;49.966;8.052;2023-03-01T14:40:50;4.27;;;3.80;;
11847;SDS011;5983;49.966;8.052;2023-03-01T14:43:22;5.10;;;4.00;;
11847;SDS011;5983;49.966;8.052;2023-03-01T14:45:51;6.27;;;4.00;;
11847;SDS011;5983;49.966;8.052;2023-03-01T14:48:20;4.23;;;3.83;;
11847;SDS011;5983;49.966;8.052;2023-03-01T14:50:48;4.83;;;4.10;;
11847;SDS011;5983;49.966;8.052;2023-03-01T14:53:17;5.30;;;4.40;;
11847;SDS011;5983;49.966;8.052;2023-03-01T14:55:49;7.23;;;4.37;;
11847;SDS011;5983;49.966;8.052;2023-03-01T14:58:20;6.27;;;4.77;;
11847;SDS011;5983;49.966;8.052;2023-03-01T15:00:50;6.13;;;5.10;;
11847;SDS011;5983;49.966;8.052;2023-03-01T15:03:25;5.37;;;4.50;;
11847;SDS011;5983;49.966;8.052;2023-03-01T15:05:59;6.43;;;4.87;;
11847;SDS011;5983;49.966;8.052;2023-03-01T15:08:28;5.30;;;4.40;;
11847;SDS011;5983;49.966;8.052;2023-03-01T15:11:00;5.77;;;4.60;;
11847;SDS011;5983;49.966;8.052;2023-03-01T15:13:32;8.53;;;5.70;;
11847;SDS011;5983;49.966;8.052;2023-03-01T15:16:07;9.30;;;4.97;;
11847;SDS011;5983;49.966;8.052;2023-03-01T15:18:43;14.37;;;11.60;;
11847;SDS011;5983;49.966;8.052;2023-03-01T15:21:17;7.33;;;6.00;;
11847;SDS011;5983;49.966;8.052;2023-03-01T15:23:48;8.20;;;5.07;;
11847;SDS011;5983;49.966;8.052;2023-03-01T15:26:25;6.07;;;4.53;;
11847;SDS011;5983;49.966;8.052;2023-03-01T15:28:56;13.33;;;6.73;;
11847;SDS011;5983;49.966;8.052;2023-03-01T15:31:26;12.30;;;7.00;;
11847;SDS011;5983;49.966;8.052;2023-03-01T15:34:10;7.80;;;6.47;;
11847;SDS011;5983;49.966;8.052;2023-03-01T15:36:49;22.87;;;13.80;;
11847;SDS011;5983;49.966;8.052;2023-03-01T15:39:26;22.80;;;12.90;;
11847;SDS011;5983;49.966;8.052;2023-03-01T15:42:03;14.63;;;9.53;;
11847;SDS011;5983;49.966;8.052;2023-03-01T15:44:34;16.67;;;10.00;;
11847;SDS011;5983;49.966;8.052;2023-03-01T15:47:05;12.10;;;9.13;;
11847;SDS011;5983;49.966;8.052;2023-03-01T15:49:56;11.77;;;8.43;;
11847;SDS011;5983;49.966;8.052;2023-03-01T15:52:26;8.57;;;6.80;;